createdAt,value
2018-06-11T00:01:45.942Z,95026.00
2018-06-11T00:04:14.925Z,95033.00
2018-06-11T00:06:43.926Z,95021.00
2018-06-11T00:09:12.950Z,95016.00
2018-06-11T00:11:41.930Z,95018.00
2018-06-11T00:14:10.925Z,95021.00
2018-06-11T00:16:39.910Z,95020.00
2018-06-11T00:19:08.897Z,95007.00
2018-06-11T00:21:37.869Z,95007.00
2018-06-11T00:24:06.857Z,95004.00
2018-06-11T00:26:35.837Z,95009.00
2018-06-11T00:29:04.853Z,95004.00
2018-06-11T00:31:33.834Z,94997.00
2018-06-11T00:34:02.954Z,94997.00
2018-06-11T00:36:31.941Z,94995.00
2018-06-11T00:39:00.942Z,95002.00
2018-06-11T00:41:29.938Z,94994.00
2018-06-11T00:43:58.955Z,94996.00
2018-06-11T00:46:27.930Z,95000.00
2018-06-11T00:48:56.931Z,95001.00
2018-06-11T00:51:25.931Z,95000.00
2018-06-11T00:53:54.922Z,95000.00
2018-06-11T00:56:24.021Z,95005.00
2018-06-11T00:58:52.794Z,94994.00
2018-06-11T01:01:21.787Z,94999.00
2018-06-11T01:03:50.774Z,95006.00
2018-06-11T01:06:19.865Z,94995.00
2018-06-11T01:08:48.873Z,95003.00
2018-06-11T01:11:17.745Z,94998.00
2018-06-11T01:13:46.730Z,94998.00
2018-06-11T01:16:15.726Z,94991.00
2018-06-11T01:18:44.718Z,95001.00
2018-06-11T01:21:13.741Z,94992.00
2018-06-11T01:23:42.733Z,95006.00
2018-06-11T01:26:11.730Z,95002.00
2018-06-11T01:28:40.718Z,94990.00
2018-06-11T01:31:09.821Z,95001.00
2018-06-11T01:33:38.814Z,95009.00
2018-06-11T01:36:07.830Z,95010.00
2018-06-11T01:38:36.822Z,95009.00
2018-06-11T01:41:05.814Z,94998.00
2018-06-11T01:43:34.811Z,94993.00
2018-06-11T01:46:03.838Z,94996.00
2018-06-11T01:48:32.814Z,94995.00
2018-06-11T01:51:01.830Z,95001.00
2018-06-11T01:53:30.850Z,94998.00
2018-06-11T01:55:59.853Z,94995.00
2018-06-11T01:58:28.849Z,94996.00
2018-06-11T02:00:57.850Z,94984.00
2018-06-11T02:03:26.854Z,94994.00
2018-06-11T02:05:55.838Z,94993.00
2018-06-11T02:08:24.837Z,95002.00
2018-06-11T02:10:53.858Z,94998.00
2018-06-11T02:13:22.842Z,94997.00
2018-06-11T02:15:51.829Z,94989.00
2018-06-11T02:18:20.698Z,94990.00
2018-06-11T02:20:49.678Z,94982.00
2018-06-11T02:23:18.674Z,94976.00
2018-06-11T02:25:47.663Z,94982.00
2018-06-11T02:28:16.673Z,94983.00
2018-06-11T02:30:45.698Z,94982.00
2018-06-11T02:33:14.718Z,94976.00
2018-06-11T02:35:43.727Z,94972.00
2018-06-11T02:38:12.732Z,94965.00
2018-06-11T02:40:41.720Z,94960.00
2018-06-11T02:43:10.809Z,94955.00
2018-06-11T02:45:39.805Z,94954.00
2018-06-11T02:48:08.797Z,94956.00
2018-06-11T02:50:37.793Z,94954.00
2018-06-11T02:53:06.799Z,94952.00
2018-06-11T02:55:35.782Z,94948.00
2018-06-11T02:58:04.770Z,94960.00
2018-06-11T03:00:33.754Z,94958.00
2018-06-11T03:03:02.776Z,94958.00
2018-06-11T03:05:31.753Z,94952.00
2018-06-11T03:08:00.759Z,94957.00
2018-06-11T03:10:29.745Z,94958.00
2018-06-11T03:12:58.751Z,94942.00
2018-06-11T03:15:27.760Z,94951.00
2018-06-11T03:17:56.743Z,94953.00
2018-06-11T03:20:25.734Z,94954.00
2018-06-11T03:22:54.742Z,94949.00
2018-06-11T03:25:23.729Z,94951.00
2018-06-11T03:27:52.718Z,94949.00
2018-06-11T03:30:21.743Z,94938.00
2018-06-11T03:32:50.736Z,94932.00
2018-06-11T03:35:19.754Z,94936.00
2018-06-11T03:37:48.749Z,94932.00
2018-06-11T03:40:17.743Z,94930.00
2018-06-11T03:42:46.734Z,94926.00
2018-06-11T03:45:15.734Z,94925.00
2018-06-11T03:47:44.718Z,94926.00
2018-06-11T03:50:13.734Z,94929.00
2018-06-11T03:52:42.760Z,94924.00
2018-06-11T03:55:11.786Z,94928.00
2018-06-11T03:57:40.727Z,94926.00
2018-06-11T04:00:09.750Z,94923.00
2018-06-11T04:02:38.745Z,94915.00
2018-06-11T04:05:07.757Z,94921.00
2018-06-11T04:07:36.753Z,94917.00
2018-06-11T04:10:05.759Z,94916.00
2018-06-11T04:12:34.766Z,94920.00
2018-06-11T04:15:04.715Z,94914.00
2018-06-11T04:17:33.703Z,94915.00
2018-06-11T04:20:02.703Z,94907.00
2018-06-11T04:22:31.706Z,94910.00
2018-06-11T04:25:00.700Z,94910.00
2018-06-11T04:27:29.686Z,94914.00
2018-06-11T04:29:58.674Z,94917.00
2018-06-11T04:32:27.649Z,94911.00
2018-06-11T04:34:56.636Z,94912.00
2018-06-11T04:37:25.723Z,94911.00
2018-06-11T04:39:54.581Z,94913.00
2018-06-11T04:42:23.575Z,94908.00
2018-06-11T04:44:52.562Z,94915.00
2018-06-11T04:47:21.570Z,94913.00
2018-06-11T04:49:50.573Z,94913.00
2018-06-11T04:52:19.554Z,94914.00
2018-06-11T04:54:48.533Z,94905.00
2018-06-11T04:57:17.561Z,94911.00
2018-06-11T04:59:46.541Z,94911.00
2018-06-11T05:02:15.562Z,94912.00
2018-06-11T05:04:44.539Z,94917.00
2018-06-11T05:07:13.638Z,94915.00
2018-06-11T05:09:42.613Z,94913.00
2018-06-11T05:12:11.622Z,94918.00
2018-06-11T05:14:40.606Z,94912.00
2018-06-11T05:17:09.625Z,94921.00
2018-06-11T05:19:38.744Z,94916.00
2018-06-11T05:22:07.753Z,94912.00
2018-06-11T05:24:36.754Z,94904.00
2018-06-11T05:27:05.749Z,94901.00
2018-06-11T05:29:34.747Z,94900.00
2018-06-11T05:32:03.923Z,94900.00
2018-06-11T05:34:32.943Z,94896.00
2018-06-11T05:37:01.906Z,94901.00
2018-06-11T05:39:30.890Z,94896.00
2018-06-11T05:41:59.882Z,94890.00
2018-06-11T05:44:28.858Z,94883.00
2018-06-11T05:46:57.957Z,94889.00
2018-06-11T05:49:26.987Z,94884.00
2018-06-11T05:51:56.071Z,94886.00
2018-06-11T05:54:25.054Z,94876.00
2018-06-11T05:56:54.034Z,94880.00
2018-06-11T05:59:23.019Z,94881.00
2018-06-11T06:01:51.998Z,94879.00
2018-06-11T06:04:20.983Z,94891.00
2018-06-11T06:06:49.985Z,94883.00
2018-06-11T06:09:18.971Z,94881.00
2018-06-11T06:11:47.963Z,94885.00
2018-06-11T06:14:17.101Z,94884.00
2018-06-11T06:16:46.043Z,94887.00
2018-06-11T06:19:15.142Z,94892.00
2018-06-11T06:21:44.140Z,94897.00
2018-06-11T06:24:13.133Z,94897.00
2018-06-11T06:26:42.210Z,94897.00
2018-06-11T06:29:11.149Z,94906.00
2018-06-11T06:31:40.136Z,94904.00
2018-06-11T06:34:09.197Z,94902.00
2018-06-11T06:36:38.165Z,94893.00
2018-06-11T06:39:09.509Z,94900.00
2018-06-11T06:41:38.665Z,94901.00
2018-06-11T06:44:07.685Z,94895.00
2018-06-11T06:46:36.678Z,94897.00
2018-06-11T06:49:05.674Z,94895.00
2018-06-11T06:51:34.786Z,94897.00
2018-06-11T06:54:03.774Z,94899.00
2018-06-11T06:56:32.762Z,94902.00
2018-06-11T06:59:01.762Z,94903.00
2018-06-11T07:01:30.772Z,94908.00
2018-06-11T07:03:59.782Z,94913.00
2018-06-11T07:06:29.317Z,94910.00
2018-06-11T07:08:58.318Z,94913.00
2018-06-11T07:11:27.322Z,94911.00
2018-06-11T07:13:56.326Z,94911.00
2018-06-11T07:16:25.435Z,94919.00
2018-06-11T07:18:54.425Z,94927.00
2018-06-11T07:21:23.424Z,94924.00
2018-06-11T07:23:52.416Z,94927.00
2018-06-11T07:26:21.426Z,94932.00
2018-06-11T07:28:50.414Z,94929.00
2018-06-11T07:31:19.992Z,94930.00
2018-06-11T07:33:48.930Z,94924.00
2018-06-11T07:36:18.022Z,94926.00
2018-06-11T07:38:47.021Z,94925.00
2018-06-11T07:41:16.011Z,94931.00
2018-06-11T07:43:44.998Z,94935.00
2018-06-11T07:46:13.876Z,94936.00
2018-06-11T07:48:42.859Z,94933.00
2018-06-11T07:51:11.962Z,94935.00
2018-06-11T07:53:40.974Z,94925.00
2018-06-11T07:56:09.963Z,94921.00
2018-06-11T07:58:38.937Z,94919.00
2018-06-11T08:01:07.931Z,94923.00
2018-06-11T08:03:37.018Z,94923.00
2018-06-11T08:06:06.135Z,94918.00
2018-06-11T08:08:34.985Z,94920.00
2018-06-11T08:11:04.074Z,94915.00
2018-06-11T08:13:33.149Z,94912.00
2018-06-11T08:16:02.100Z,94907.00
2018-06-11T08:18:31.087Z,94905.00
2018-06-11T08:21:00.170Z,94908.00
2018-06-11T08:23:29.214Z,94906.00
2018-06-11T08:25:58.190Z,94896.00
2018-06-11T08:28:27.182Z,94904.00
2018-06-11T08:30:56.153Z,94897.00
2018-06-11T08:33:25.142Z,94898.00
2018-06-11T08:35:54.117Z,94900.00
2018-06-11T08:38:23.110Z,94899.00
2018-06-11T08:40:52.114Z,94903.00
2018-06-11T08:43:21.115Z,94896.00
2018-06-11T08:45:50.102Z,94897.00
2018-06-11T08:48:19.090Z,94899.00
2018-06-11T08:50:48.138Z,94898.00
2018-06-11T08:53:17.133Z,94897.00
2018-06-11T08:55:46.130Z,94895.00
2018-06-11T08:58:15.234Z,94896.00
2018-06-11T09:00:44.222Z,94896.00
2018-06-11T09:03:13.198Z,94888.00
2018-06-11T09:05:42.192Z,94887.00
2018-06-11T09:08:11.194Z,94891.00
2018-06-11T09:10:40.176Z,94891.00
2018-06-11T09:13:09.175Z,94890.00
2018-06-11T09:15:38.257Z,94883.00
2018-06-11T09:18:07.393Z,94891.00
2018-06-11T09:20:36.361Z,94887.00
2018-06-11T09:23:05.227Z,94882.00
2018-06-11T09:25:34.226Z,94885.00
2018-06-11T09:28:03.202Z,94886.00
2018-06-11T09:30:32.208Z,94891.00
2018-06-11T09:33:01.197Z,94893.00
2018-06-11T09:35:30.200Z,94881.00
2018-06-11T09:37:59.206Z,94889.00
2018-06-11T09:40:28.210Z,94887.00
2018-06-11T09:42:57.197Z,94879.00
2018-06-11T09:45:26.177Z,94882.00
2018-06-11T09:47:55.165Z,94886.00
2018-06-11T09:50:24.183Z,94885.00
2018-06-11T09:52:53.162Z,94877.00
2018-06-11T09:55:22.163Z,94878.00
2018-06-11T09:57:51.154Z,94865.00
2018-06-11T10:00:25.470Z,94866.00
2018-06-11T10:02:54.461Z,94859.00
2018-06-11T10:05:23.463Z,94860.00
2018-06-11T10:07:52.458Z,94864.00
2018-06-11T10:10:21.461Z,94866.00
2018-06-11T10:12:50.442Z,94854.00
2018-06-11T10:15:19.441Z,94848.00
2018-06-11T10:17:48.429Z,94858.00
2018-06-11T10:20:17.547Z,94850.00
2018-06-11T10:22:46.617Z,94852.00
2018-06-11T10:25:15.730Z,94846.00
2018-06-11T10:27:44.713Z,94844.00
2018-06-11T10:30:13.721Z,94843.00
2018-06-11T10:32:42.723Z,94837.00
2018-06-11T10:35:11.717Z,94836.00
2018-06-11T10:37:40.591Z,94827.00
2018-06-11T10:40:09.582Z,94836.00
2018-06-11T10:42:38.586Z,94833.00
2018-06-11T10:45:07.683Z,94829.00
2018-06-11T10:47:36.665Z,94820.00
2018-06-11T10:50:05.902Z,94822.00
2018-06-11T10:52:35.003Z,94824.00
2018-06-11T10:55:03.981Z,94814.00
2018-06-11T10:57:33.035Z,94815.00
2018-06-11T11:00:02.026Z,94811.00
2018-06-11T11:02:31.018Z,94811.00
2018-06-11T11:05:00.044Z,94806.00
2018-06-11T11:07:29.049Z,94800.00
2018-06-11T11:09:58.042Z,94801.00
2018-06-11T11:12:27.164Z,94796.00
2018-06-11T11:14:56.145Z,94792.00
2018-06-11T11:17:25.142Z,94781.00
2018-06-11T11:19:54.146Z,94781.00
2018-06-11T11:22:23.134Z,94778.00
2018-06-11T11:24:52.135Z,94771.00
2018-06-11T11:27:21.134Z,94767.00
2018-06-11T11:29:50.221Z,94765.00
2018-06-11T11:32:19.222Z,94753.00
2018-06-11T11:34:48.089Z,94748.00
2018-06-11T11:37:17.094Z,94738.00
2018-06-11T11:39:46.075Z,94744.00
2018-06-11T11:42:15.072Z,94741.00
2018-06-11T11:44:44.065Z,94737.00
2018-06-11T11:47:13.066Z,94735.00
2018-06-11T11:49:42.070Z,94727.00
2018-06-11T11:52:11.075Z,94720.00
2018-06-11T11:54:40.065Z,94707.00
2018-06-11T11:57:09.073Z,94699.00
2018-06-11T11:59:38.068Z,94694.00
2018-06-11T12:02:07.062Z,94689.00
2018-06-11T12:04:36.069Z,94671.00
2018-06-11T12:07:05.039Z,94670.00
2018-06-11T12:09:34.034Z,94669.00
2018-06-11T12:12:03.027Z,94668.00
2018-06-11T12:14:32.025Z,94660.00
2018-06-11T12:17:01.017Z,94666.00
2018-06-11T12:19:30.014Z,94662.00
2018-06-11T12:21:59.006Z,94662.00
2018-06-11T12:24:27.990Z,94660.00
2018-06-11T12:26:57.288Z,94660.00
2018-06-11T12:29:26.466Z,94667.00
2018-06-11T12:31:55.455Z,94659.00
2018-06-11T12:34:24.458Z,94658.00
2018-06-11T12:36:53.466Z,94647.00
2018-06-11T12:39:22.457Z,94649.00
2018-06-11T12:41:51.458Z,94638.00
2018-06-11T12:44:20.434Z,94638.00
2018-06-11T12:46:49.435Z,94639.00
2018-06-11T12:49:18.425Z,94633.00
2018-06-11T12:51:47.427Z,94643.00
2018-06-11T12:54:16.419Z,94647.00
2018-06-11T12:56:45.457Z,94652.00
2018-06-11T12:59:14.478Z,94657.00
2018-06-11T13:01:43.474Z,94652.00
2018-06-11T13:04:12.494Z,94658.00
2018-06-11T13:06:41.484Z,94669.00
2018-06-11T13:09:10.590Z,94665.00
2018-06-11T13:11:39.598Z,94658.00
2018-06-11T13:14:08.685Z,94658.00
2018-06-11T13:16:37.775Z,94647.00
2018-06-11T13:19:06.881Z,94648.00
2018-06-11T13:21:35.855Z,94644.00
2018-06-11T13:24:05.034Z,94651.00
2018-06-11T13:26:34.022Z,94650.00
2018-06-11T13:29:03.027Z,94652.00
2018-06-11T13:31:32.005Z,94650.00
2018-06-11T13:34:01.023Z,94658.00
2018-06-11T13:36:30.014Z,94646.00
2018-06-11T13:38:59.022Z,94649.00
2018-06-11T13:41:28.002Z,94643.00
2018-06-11T13:43:57.006Z,94640.00
2018-06-11T13:46:25.994Z,94630.00
2018-06-11T13:48:54.992Z,94622.00
2018-06-11T13:51:23.988Z,94621.00
2018-06-11T13:53:52.974Z,94616.00
2018-06-11T13:56:21.965Z,94602.00
2018-06-11T13:58:50.976Z,94596.00
2018-06-11T14:01:19.975Z,94585.00
2018-06-11T14:03:48.973Z,94579.00
2018-06-11T14:06:17.979Z,94576.00
2018-06-11T14:08:46.986Z,94566.00
2018-06-11T14:11:16.020Z,94559.00
2018-06-11T14:13:45.149Z,94538.00
2018-06-11T14:16:14.263Z,94522.00
2018-06-11T14:18:43.406Z,94512.00
2018-06-11T14:21:12.376Z,94511.00
2018-06-11T14:23:41.536Z,94505.00
2018-06-11T14:26:10.535Z,94503.00
2018-06-11T14:28:39.601Z,94503.00
2018-06-11T14:31:08.514Z,94490.00
2018-06-11T14:33:37.385Z,94482.00
2018-06-11T14:36:06.369Z,94498.00
2018-06-11T14:38:35.365Z,94516.00
2018-06-11T14:41:04.390Z,94523.00
2018-06-11T14:43:33.410Z,94529.00
2018-06-11T14:46:02.435Z,94529.00
2018-06-11T14:48:31.430Z,94524.00
2018-06-11T14:51:00.438Z,94521.00
2018-06-11T14:53:29.437Z,94528.00
2018-06-11T14:55:58.437Z,94526.00
2018-06-11T14:58:27.447Z,94537.00
2018-06-11T15:00:56.440Z,94537.00
2018-06-11T15:03:25.534Z,94539.00
2018-06-11T15:05:54.537Z,94539.00
2018-06-11T15:08:23.522Z,94527.00
2018-06-11T15:10:52.529Z,94516.00
2018-06-11T15:13:21.514Z,94517.00
2018-06-11T15:15:50.539Z,94509.00
2018-06-11T15:18:19.494Z,94506.00
2018-06-11T15:20:48.494Z,94511.00
2018-06-11T15:23:17.498Z,94511.00
2018-06-11T15:25:46.510Z,94516.00
2018-06-11T15:28:15.488Z,94516.00
2018-06-11T15:30:44.506Z,94508.00
2018-06-11T15:33:13.505Z,94511.00
2018-06-11T15:35:42.522Z,94506.00
2018-06-11T15:38:11.502Z,94500.00
2018-06-11T15:40:40.509Z,94498.00
2018-06-11T15:43:09.575Z,94493.00
2018-06-11T15:45:38.578Z,94480.00
2018-06-11T15:48:07.582Z,94469.00
2018-06-11T15:50:36.602Z,94460.00
2018-06-11T15:53:05.654Z,94457.00
2018-06-11T15:55:34.694Z,94441.00
2018-06-11T15:58:03.725Z,94425.00
2018-06-11T16:00:32.757Z,94433.00
2018-06-11T16:03:01.733Z,94429.00
2018-06-11T16:05:30.772Z,94429.00
2018-06-11T16:07:59.786Z,94425.00
2018-06-11T16:10:28.890Z,94434.00
2018-06-11T16:12:57.880Z,94448.00
2018-06-11T16:15:26.904Z,94458.00
2018-06-11T16:17:55.881Z,94450.00
2018-06-11T16:20:24.890Z,94455.00
2018-06-11T16:22:53.878Z,94452.00
2018-06-11T16:25:22.886Z,94445.00
2018-06-11T16:27:52.035Z,94436.00
2018-06-11T16:30:20.978Z,94434.00
2018-06-11T16:32:49.983Z,94421.00
2018-06-11T16:35:18.973Z,94417.00
2018-06-11T16:37:47.985Z,94412.00
2018-06-11T16:40:17.083Z,94408.00
2018-06-11T16:42:46.140Z,94401.00
2018-06-11T16:45:15.155Z,94402.00
2018-06-11T16:47:44.170Z,94410.00
2018-06-11T16:50:13.165Z,94423.00
2018-06-11T16:52:42.189Z,94432.00
2018-06-11T16:55:11.229Z,94437.00
2018-06-11T16:57:40.193Z,94433.00
2018-06-11T17:00:09.182Z,94442.00
2018-06-11T17:02:38.206Z,94424.00
2018-06-11T17:05:07.202Z,94414.00
2018-06-11T17:07:36.203Z,94409.00
2018-06-11T17:10:05.189Z,94404.00
2018-06-11T17:12:34.182Z,94400.00
2018-06-11T17:15:03.270Z,94405.00
2018-06-11T17:17:32.253Z,94409.00
2018-06-11T17:20:01.236Z,94424.00
2018-06-11T17:22:30.330Z,94442.00
2018-06-11T17:24:59.343Z,94451.00
2018-06-11T17:27:28.335Z,94467.00
2018-06-11T17:29:57.330Z,94471.00
2018-06-11T17:32:26.324Z,94476.00
2018-06-11T17:34:55.305Z,94489.00
2018-06-11T17:37:24.306Z,94509.00
2018-06-11T17:39:53.303Z,94504.00
2018-06-11T17:42:22.294Z,94508.00
2018-06-11T17:44:51.308Z,94508.00
2018-06-11T17:47:20.198Z,94517.00
2018-06-11T17:49:49.183Z,94505.00
2018-06-11T17:52:18.198Z,94502.00
2018-06-11T17:54:47.298Z,94501.00
2018-06-11T17:57:16.472Z,94491.00
2018-06-11T17:59:45.413Z,94484.00
2018-06-11T18:02:14.426Z,94487.00
2018-06-11T18:04:43.506Z,94494.00
2018-06-11T18:07:12.450Z,94503.00
2018-06-11T18:09:41.313Z,94521.00
2018-06-11T18:12:10.319Z,94528.00
2018-06-11T18:14:39.452Z,94523.00
2018-06-11T18:17:08.433Z,94530.00
2018-06-11T18:19:37.445Z,94531.00
2018-06-11T18:22:06.454Z,94544.00
2018-06-11T18:24:35.445Z,94541.00
2018-06-11T18:27:04.458Z,94550.00
2018-06-11T18:29:33.570Z,94555.00
2018-06-11T18:32:02.901Z,94558.00
2018-06-11T18:34:31.910Z,94553.00
2018-06-11T18:37:00.899Z,94551.00
2018-06-11T18:39:29.899Z,94554.00
2018-06-11T18:41:58.923Z,94550.00
2018-06-11T18:44:28.028Z,94553.00
2018-06-11T18:46:57.129Z,94546.00
2018-06-11T18:49:26.105Z,94548.00
2018-06-11T18:51:55.101Z,94553.00
2018-06-11T18:54:24.109Z,94563.00
2018-06-11T18:56:53.189Z,94557.00
2018-06-11T18:59:22.191Z,94554.00
2018-06-11T19:01:51.178Z,94555.00
2018-06-11T19:04:20.178Z,94566.00
2018-06-11T19:06:49.183Z,94577.00
2018-06-11T19:09:18.194Z,94591.00
2018-06-11T19:11:47.179Z,94599.00
2018-06-11T19:14:16.192Z,94609.00
2018-06-11T19:16:45.186Z,94614.00
2018-06-11T19:19:14.198Z,94621.00
2018-06-11T19:21:43.186Z,94634.00
2018-06-11T19:24:12.210Z,94628.00
2018-06-11T19:26:41.162Z,94648.00
2018-06-11T19:29:10.171Z,94650.00
2018-06-11T19:31:39.146Z,94651.00
2018-06-11T19:34:08.133Z,94656.00
2018-06-11T19:36:37.117Z,94667.00
2018-06-11T19:39:07.201Z,94672.00
2018-06-11T19:41:36.197Z,94672.00
2018-06-11T19:44:05.178Z,94673.00
2018-06-11T19:46:34.201Z,94672.00
2018-06-11T19:49:03.179Z,94693.00
2018-06-11T19:51:32.170Z,94685.00
2018-06-11T19:54:01.194Z,94690.00
2018-06-11T19:56:30.189Z,94699.00
2018-06-11T19:58:59.190Z,94709.00
2018-06-11T20:01:28.191Z,94703.00
2018-06-11T20:03:57.198Z,94708.00
2018-06-11T20:06:26.307Z,94699.00
2018-06-11T20:08:55.398Z,94714.00
2018-06-11T20:11:24.559Z,94720.00
2018-06-11T20:13:53.558Z,94714.00
2018-06-11T20:16:22.553Z,94709.00
2018-06-11T20:18:51.537Z,94709.00
2018-06-11T20:21:20.630Z,94688.00
2018-06-11T20:23:49.729Z,94699.00
2018-06-11T20:26:18.734Z,94692.00
2018-06-11T20:28:47.721Z,94694.00
2018-06-11T20:31:16.735Z,94693.00
2018-06-11T20:33:45.718Z,94689.00
2018-06-11T20:36:14.746Z,94690.00
2018-06-11T20:38:43.744Z,94685.00
2018-06-11T20:41:12.738Z,94696.00
2018-06-11T20:43:41.739Z,94676.00
2018-06-11T20:46:10.764Z,94681.00
2018-06-11T20:48:39.950Z,94682.00
2018-06-11T20:51:08.942Z,94680.00
2018-06-11T20:53:37.963Z,94682.00
2018-06-11T20:56:06.994Z,94689.00
2018-06-11T20:58:36.006Z,94682.00
2018-06-11T21:01:05.002Z,94685.00
2018-06-11T21:03:34.170Z,94692.00
2018-06-11T21:06:03.177Z,94694.00
2018-06-11T21:08:32.170Z,94705.00
2018-06-11T21:11:01.047Z,94704.00
2018-06-11T21:13:30.036Z,94701.00
2018-06-11T21:15:59.188Z,94692.00
2018-06-11T21:18:28.165Z,94693.00
2018-06-11T21:20:57.184Z,94699.00
2018-06-11T21:23:26.174Z,94700.00
2018-06-11T21:25:55.207Z,94701.00
2018-06-11T21:28:24.272Z,94702.00
2018-06-11T21:30:53.258Z,94701.00
2018-06-11T21:33:22.254Z,94703.00
2018-06-11T21:35:51.238Z,94699.00
2018-06-11T21:38:20.319Z,94712.00
2018-06-11T21:40:49.380Z,94715.00
2018-06-11T21:43:18.402Z,94715.00
2018-06-11T21:45:47.404Z,94726.00
2018-06-11T21:48:16.416Z,94723.00
2018-06-11T21:50:45.418Z,94720.00
2018-06-11T21:53:14.418Z,94718.00
2018-06-11T21:55:43.450Z,94718.00
2018-06-11T21:58:12.458Z,94717.00
2018-06-11T22:00:41.458Z,94727.00
2018-06-11T22:03:10.574Z,94723.00
2018-06-11T22:05:39.602Z,94732.00
2018-06-11T22:08:08.618Z,94739.00
2018-06-11T22:10:37.658Z,94732.00
2018-06-11T22:13:06.711Z,94732.00
2018-06-11T22:15:35.728Z,94733.00
2018-06-11T22:18:04.757Z,94736.00
2018-06-11T22:20:33.782Z,94741.00
2018-06-11T22:23:02.815Z,94741.00
2018-06-11T22:25:31.813Z,94746.00
2018-06-11T22:28:00.814Z,94734.00
2018-06-11T22:30:29.825Z,94744.00
2018-06-11T22:32:58.894Z,94741.00
2018-06-11T22:35:27.889Z,94735.00
2018-06-11T22:37:56.994Z,94743.00
2018-06-11T22:40:25.981Z,94742.00
2018-06-11T22:42:54.969Z,94737.00
2018-06-11T22:45:24.065Z,94749.00
2018-06-11T22:47:53.169Z,94747.00
2018-06-11T22:50:22.277Z,94741.00
2018-06-11T22:52:51.383Z,94741.00
2018-06-11T22:55:20.382Z,94745.00
2018-06-11T22:57:49.390Z,94742.00
2018-06-11T23:00:32.798Z,94735.00
2018-06-11T23:03:02.184Z,94737.00
2018-06-11T23:05:31.173Z,94739.00
2018-06-11T23:08:00.189Z,94736.00
2018-06-11T23:10:29.169Z,94736.00
2018-06-11T23:12:58.169Z,94734.00
2018-06-11T23:15:27.169Z,94733.00
2018-06-11T23:17:56.183Z,94735.00
2018-06-11T23:20:25.187Z,94731.00
2018-06-11T23:22:54.195Z,94734.00
2018-06-11T23:25:23.194Z,94734.00
2018-06-11T23:27:53.409Z,94731.00
2018-06-11T23:30:22.411Z,94738.00
2018-06-11T23:32:51.402Z,94730.00
2018-06-11T23:35:20.497Z,94740.00
2018-06-11T23:37:49.522Z,94727.00
2018-06-11T23:40:18.511Z,94738.00
2018-06-11T23:42:47.605Z,94736.00
2018-06-11T23:45:16.595Z,94732.00
2018-06-11T23:47:45.593Z,94733.00
2018-06-11T23:50:14.614Z,94729.00
2018-06-11T23:52:43.590Z,94732.00
2018-06-11T23:55:12.594Z,94719.00
2018-06-11T23:57:41.578Z,94715.00
